Bochem Mumbai — VRHJ8 — position and weather

sailwx.info

Track history (hours):
 
Tides and Currents Weather Stations Pressure Air Temp Water Temp Dewpoint Dewpoint Depression Visibility Wind Speed Wind Dir Waves Ship Positions

Bochem Mumbai

Last reported at 2015-Feb-19 23:23 UTC. Time now 2015-Feb-27 04:10 UTC.
Position S 30°12' E 031°08'.

Length 171 m; draft 10.6 m.

Type: Tanker. MMSI: 477932400.

Date/timePositionNaut miles runAvg speedWind from/ knotsBaromVisibWave heightAir tempDewpointWater temp
2015-Feb-19 23:23S 30°12' E 031°08'1012.6
2015-Feb-19 22:33S 30°03' E 031°12'10 9.9
2015-Feb-19 21:33S 29°53' E 031°13'8 8.4
2015-Feb-19 20:33S 29°53' E 031°03'0 0.2
2015-Feb-19 19:27S 29°53' E 031°03'0 0.0
2015-Feb-19 18:33S 29°53' E 031°03'0 0.0
2015-Feb-19 17:33S 29°53' E 031°03'0 0.0
2015-Feb-19 16:27S 29°53' E 031°03'0 0.0
2015-Feb-19 15:33S 29°53' E 031°03'0 0.0
2015-Feb-19 14:33S 29°53' E 031°03'0 0.0
2015-Feb-19 13:27S 29°53' E 031°03'0 0.0
2015-Feb-19 12:27S 29°53' E 031°03'0 0.0
2015-Feb-19 11:33S 29°53' E 031°03'0 0.0
2015-Feb-19 10:27S 29°53' E 031°03'0 0.0
2015-Feb-19 09:33S 29°53' E 031°03'0 0.0
2015-Feb-19 08:33S 29°53' E 031°03'2 1.6
2015-Feb-19 07:33S 29°52' E 031°04'4 4.5
2015-Feb-19 06:33S 29°48' E 031°07'5 5.0
2015-Feb-19 05:33S 29°51' E 031°12'1 0.8
2015-Feb-19 04:33S 29°50' E 031°13'0 0.3
2015-Feb-19 03:33S 29°50' E 031°12'8 7.8
2015-Feb-19 02:33S 29°48' E 031°21'1312.9
2015-Feb-19 01:33S 29°47' E 031°36'1312.5
2015-Feb-19 00:33S 29°46' E 031°50'  
Track history (hours):
 
Tides and Currents Weather Stations Pressure Air Temp Water Temp Dewpoint Dewpoint Depression Visibility Wind Speed Wind Dir Waves Ship Positions

Bochem Mumbai

Last reported at 2015-Feb-19 23:23 UTC. Time now 2015-Feb-27 04:10 UTC.
Position S 30°12' E 031°08'.

Length 171 m; draft 10.6 m.

Type: Tanker. MMSI: 477932400.

Date/timePositionNaut miles runAvg speedWind from/ knotsBaromVisibWave heightAir tempDewpointWater temp
2015-Feb-19 23:23S 30°12' E 031°08'1012.6
2015-Feb-19 22:33S 30°03' E 031°12'10 9.9
2015-Feb-19 21:33S 29°53' E 031°13'8 8.4
2015-Feb-19 20:33S 29°53' E 031°03'0 0.2
2015-Feb-19 19:27S 29°53' E 031°03'0 0.0
2015-Feb-19 18:33S 29°53' E 031°03'0 0.0
2015-Feb-19 17:33S 29°53' E 031°03'0 0.0
2015-Feb-19 16:27S 29°53' E 031°03'0 0.0
2015-Feb-19 15:33S 29°53' E 031°03'0 0.0
2015-Feb-19 14:33S 29°53' E 031°03'0 0.0
2015-Feb-19 13:27S 29°53' E 031°03'0 0.0
2015-Feb-19 12:27S 29°53' E 031°03'0 0.0
2015-Feb-19 11:33S 29°53' E 031°03'0 0.0
2015-Feb-19 10:27S 29°53' E 031°03'0 0.0
2015-Feb-19 09:33S 29°53' E 031°03'0 0.0
2015-Feb-19 08:33S 29°53' E 031°03'2 1.6
2015-Feb-19 07:33S 29°52' E 031°04'4 4.5
2015-Feb-19 06:33S 29°48' E 031°07'5 5.0
2015-Feb-19 05:33S 29°51' E 031°12'1 0.8
2015-Feb-19 04:33S 29°50' E 031°13'0 0.3
2015-Feb-19 03:33S 29°50' E 031°12'8 7.8
2015-Feb-19 02:33S 29°48' E 031°21'1312.9
2015-Feb-19 01:33S 29°47' E 031°36'1312.5
2015-Feb-19 00:33S 29°46' E 031°50'  

Dump ship's entire track history